AIRPORT ID: O43

DATE: 2021-12-09 ZULU TIME: 1.35 LOCAL TIME: 17.35


METAR KO43 090135Z AUTO 00000KT 10SM 08/03 A2991

ALTIMETER: A2991 Q1013

DENSITY ALT: 4600 Ft

WIND DIRECT: 70

WIND SPEED: 0 Gust

WIND CONDITIONS:

VISIBILTY: 10SM 9999M

TEMPERATURE: 47 F 8 C

DEW POINT: 38 F 3 C

HUMID: 72%

LCL: 1,000-3,000 feet

RADIO CHECK: 0

ADVISARIES: 0

GREETINGS: 0

CONVERSATIONS: 0